createdAt,value
2019-04-20T00:01:21.682Z,100918.88
2019-04-20T00:03:47.321Z,100918.26
2019-04-20T00:06:17.246Z,100919.27
2019-04-20T00:08:46.233Z,100918.45
2019-04-20T00:11:24.835Z,100918.92
2019-04-20T00:13:54.954Z,100913.63
2019-04-20T00:16:16.837Z,100913.83
2019-04-20T00:18:48.845Z,100910.55
2019-04-20T00:21:34.448Z,100913.89
2019-04-20T00:24:13.376Z,100915.57
2019-04-20T00:27:08.605Z,100920.15
2019-04-20T00:29:27.732Z,100911.31
2019-04-20T00:31:49.104Z,100906.94
2019-04-20T00:34:17.340Z,100900.91
2019-04-20T00:36:39.235Z,100901.70
2019-04-20T00:39:11.276Z,100909.34
2019-04-20T00:41:43.827Z,100910.66
2019-04-20T00:44:13.269Z,100908.52
2019-04-20T00:46:58.729Z,100908.20
2019-04-20T00:49:20.663Z,100906.70
2019-04-20T00:52:05.271Z,100911.67
2019-04-20T00:54:07.887Z,100901.28
2019-04-20T00:56:37.092Z,100909.22
2019-04-20T00:59:17.204Z,100903.14
2019-04-20T01:01:52.129Z,100902.20
2019-04-20T01:04:23.839Z,100906.19
2019-04-20T01:07:05.545Z,100908.70
2019-04-20T01:09:43.938Z,100909.42
2019-04-20T01:12:19.277Z,100914.25
2019-04-20T01:14:48.469Z,100912.14
2019-04-20T01:17:17.896Z,100913.98
2019-04-20T01:19:48.866Z,100917.63
2019-04-20T01:22:20.109Z,100909.77
2019-04-20T01:24:48.315Z,100920.84
2019-04-20T01:27:28.350Z,100920.05
2019-04-20T01:29:50.960Z,100929.66
2019-04-20T01:32:26.706Z,100921.44
2019-04-20T01:34:57.636Z,100925.42
2019-04-20T01:37:29.788Z,100927.29
2019-04-20T01:39:52.059Z,100931.27
2019-04-20T01:42:17.253Z,100926.86
2019-04-20T01:44:49.167Z,100923.91
2019-04-20T01:47:15.350Z,100924.25
2019-04-20T01:49:47.726Z,100924.80
2019-04-20T01:52:20.102Z,100928.45
2019-04-20T01:55:22.978Z,100928.95
2019-04-20T01:58:00.447Z,100925.55
2019-04-20T02:00:44.990Z,100923.60
2019-04-20T02:03:36.963Z,100921.97
2019-04-20T02:06:06.377Z,100936.17
2019-04-20T02:08:31.423Z,100937.67
2019-04-20T02:11:04.349Z,100933.26
2019-04-20T02:13:40.241Z,100934.58
2019-04-20T02:16:11.425Z,100936.55
2019-04-20T02:18:44.307Z,100939.55
2019-04-20T02:21:22.073Z,100935.13
2019-04-20T02:23:42.094Z,100934.81
2019-04-20T02:26:04.983Z,100935.31
2019-04-20T02:29:00.704Z,100933.20
2019-04-20T02:31:45.685Z,100929.75
2019-04-20T02:34:19.861Z,100932.42
2019-04-20T02:36:58.825Z,100931.95
2019-04-20T02:39:30.612Z,100937.71
2019-04-20T02:41:53.365Z,100930.66
2019-04-20T02:44:24.157Z,100937.25
2019-04-20T02:46:55.842Z,100941.38
2019-04-20T02:49:29.718Z,100936.61
2019-04-20T02:59:51.238Z,100927.25
2019-04-20T03:01:43.471Z,100924.56
2019-04-20T03:03:55.987Z,100927.71
2019-04-20T03:06:35.080Z,100924.57
2019-04-20T03:09:15.222Z,100920.97
2019-04-20T03:11:56.753Z,100921.77
2019-04-20T03:14:09.556Z,100919.98
2019-04-20T03:16:38.556Z,100918.47
2019-04-20T03:19:08.065Z,100920.12
2019-04-20T03:21:47.896Z,100917.99
2019-04-20T03:24:18.891Z,100911.59
2019-04-20T03:26:42.014Z,100923.06
2019-04-20T03:29:37.055Z,100915.19
2019-04-20T03:32:40.239Z,100914.37
2019-04-20T03:37:13.154Z,100913.19
2019-04-20T03:39:35.989Z,100915.34
2019-04-20T03:41:54.899Z,100918.63
2019-04-20T03:44:25.569Z,100920.09
2019-04-20T03:46:57.486Z,100918.94
2019-04-20T03:49:49.032Z,100913.03
2019-04-20T03:52:28.786Z,100917.79
2019-04-20T03:55:16.466Z,100916.64
2019-04-20T03:58:10.085Z,100922.21
2019-04-20T04:01:03.839Z,100917.28
2019-04-20T04:03:56.671Z,100924.16
2019-04-20T04:06:11.765Z,100925.48
2019-04-20T04:08:34.460Z,100925.80
2019-04-20T04:11:18.877Z,100920.87
2019-04-20T04:13:27.037Z,100925.11
2019-04-20T04:16:01.183Z,100925.77
2019-04-20T04:18:31.868Z,100925.78
2019-04-20T04:21:02.922Z,100921.32
2019-04-20T04:23:40.439Z,100928.22
2019-04-20T04:26:14.994Z,100919.33
2019-04-20T04:28:40.998Z,100921.10
2019-04-20T04:31:13.390Z,100929.81
2019-04-20T04:33:55.949Z,100924.52
2019-04-20T04:36:12.997Z,100928.47
2019-04-20T04:38:48.701Z,100923.84
2019-04-20T04:41:18.183Z,100922.82
2019-04-20T04:43:44.327Z,100932.47
2019-04-20T04:45:59.562Z,100928.50
2019-04-20T04:48:34.452Z,100925.34
2019-04-20T04:51:03.207Z,100936.34
2019-04-20T04:53:42.975Z,100933.88
2019-04-20T04:56:05.742Z,100933.36
2019-04-20T04:58:29.699Z,100938.94
2019-04-20T05:01:06.551Z,100937.63
2019-04-20T05:03:45.312Z,100932.70
2019-04-20T05:06:23.168Z,100941.27
2019-04-20T05:08:43.771Z,100939.80
2019-04-20T05:11:06.914Z,100945.22
2019-04-20T05:13:41.903Z,100940.19
2019-04-20T05:16:19.212Z,100946.63
2019-04-20T05:18:59.267Z,100946.63
2019-04-20T05:21:44.596Z,100949.63
2019-04-20T05:24:33.813Z,100951.63
2019-04-20T05:27:30.075Z,100953.76
2019-04-20T05:29:41.355Z,100956.12
2019-04-20T05:32:15.924Z,100962.72
2019-04-20T05:35:05.100Z,100964.23
2019-04-20T05:37:33.282Z,100967.17
2019-04-20T05:40:04.412Z,100963.59
2019-04-20T05:42:31.243Z,100961.97
2019-04-20T05:44:57.247Z,100960.51
2019-04-20T05:47:27.039Z,100959.37
2019-04-20T05:49:53.790Z,100965.48
2019-04-20T05:52:53.907Z,100967.11
2019-04-20T05:55:03.021Z,100964.66
2019-04-20T05:57:31.938Z,100968.98
2019-04-20T06:00:12.666Z,100980.16
2019-04-20T06:02:34.761Z,100978.03
2019-04-20T06:05:06.959Z,100975.12
2019-04-20T06:07:31.166Z,100975.61
2019-04-20T06:10:07.801Z,100980.88
2019-04-20T06:12:33.137Z,100979.73
2019-04-20T06:15:21.094Z,100976.91
2019-04-20T06:18:02.390Z,100970.17
2019-04-20T06:20:45.358Z,100974.92
2019-04-20T06:23:34.254Z,100972.27
2019-04-20T06:26:13.429Z,100967.30
2019-04-20T06:28:28.377Z,100966.91
2019-04-20T06:30:52.639Z,100973.14
2019-04-20T06:34:31.084Z,100973.90
2019-04-20T06:36:51.175Z,100974.94
2019-04-20T06:39:20.016Z,100970.17
2019-04-20T06:42:07.755Z,100969.90
2019-04-20T06:44:23.163Z,100976.03
2019-04-20T06:46:52.473Z,100974.44
2019-04-20T06:49:22.876Z,100978.87
2019-04-20T06:51:55.386Z,100981.81
2019-04-20T06:54:20.034Z,100985.13
2019-04-20T06:57:01.723Z,100978.12
2019-04-20T06:59:38.733Z,100979.92
2019-04-20T07:04:49.999Z,100984.72
2019-04-20T07:07:08.611Z,100983.11
2019-04-20T07:09:42.114Z,100982.99
2019-04-20T07:11:59.576Z,100989.02
2019-04-20T07:14:24.203Z,100993.66
2019-04-20T07:17:26.938Z,100988.52
2019-04-20T07:19:55.903Z,100988.03
2019-04-20T07:22:39.403Z,100978.83
2019-04-20T07:25:01.177Z,100984.27
2019-04-20T07:27:36.584Z,100984.88
2019-04-20T07:30:03.949Z,100980.66
2019-04-20T07:32:38.929Z,100982.34
2019-04-20T07:35:01.353Z,100983.19
2019-04-20T07:38:04.640Z,100981.49
2019-04-20T07:40:13.535Z,100980.88
2019-04-20T07:42:43.695Z,100981.59
2019-04-20T07:45:07.463Z,100981.36
2019-04-20T07:47:44.086Z,100985.67
2019-04-20T07:50:04.835Z,100981.80
2019-04-20T07:52:24.364Z,100978.73
2019-04-20T07:55:32.001Z,100978.66
2019-04-20T07:57:34.034Z,100973.86
2019-04-20T08:00:04.864Z,100970.81
2019-04-20T08:02:58.654Z,100968.91
2019-04-20T08:05:36.723Z,100968.27
2019-04-20T08:08:08.318Z,100969.61
2019-04-20T08:10:47.391Z,100965.94
2019-04-20T08:13:21.484Z,100961.20
2019-04-20T08:18:16.085Z,100956.59
2019-04-20T08:20:46.275Z,100956.52
2019-04-20T08:23:12.986Z,100958.25
2019-04-20T08:25:36.152Z,100954.89
2019-04-20T08:28:18.860Z,100953.55
2019-04-20T08:31:25.257Z,100962.69
2019-04-20T08:34:12.161Z,100957.80
2019-04-20T08:36:33.217Z,100951.92
2019-04-20T08:41:25.045Z,100953.19
2019-04-20T08:44:18.649Z,100950.26
2019-04-20T08:46:38.351Z,100946.52
2019-04-20T08:49:05.048Z,100953.02
2019-04-20T08:51:46.305Z,100952.46
2019-04-20T08:54:02.349Z,100941.13
2019-04-20T08:56:27.269Z,100945.37
2019-04-20T08:58:43.448Z,100937.76
2019-04-20T09:01:18.438Z,100942.80
2019-04-20T09:03:53.133Z,100937.01
2019-04-20T09:06:26.358Z,100936.34
2019-04-20T09:08:50.339Z,100930.56
2019-04-20T09:11:31.156Z,100931.73
2019-04-20T09:13:47.710Z,100935.42
2019-04-20T09:16:13.035Z,100936.60
2019-04-20T09:18:51.472Z,100935.09
2019-04-20T09:21:25.288Z,100921.42
2019-04-20T09:24:04.545Z,100926.88
2019-04-20T09:26:34.277Z,100918.02
2019-04-20T09:29:02.825Z,100919.08
2019-04-20T09:31:44.801Z,100915.84
2019-04-20T09:34:37.028Z,100907.97
2019-04-20T09:37:21.961Z,100904.66
2019-04-20T09:40:06.180Z,100900.77
2019-04-20T09:42:30.360Z,100904.20
2019-04-20T09:45:02.490Z,100901.98
2019-04-20T09:47:36.813Z,100894.85
2019-04-20T09:50:18.732Z,100894.80
2019-04-20T09:52:46.513Z,100885.81
2019-04-20T09:55:10.764Z,100888.45
2019-04-20T09:57:46.692Z,100882.16
2019-04-20T10:00:16.770Z,100882.60
2019-04-20T10:02:32.558Z,100872.96
2019-04-20T10:04:59.643Z,100869.70
2019-04-20T10:07:32.586Z,100866.77
2019-04-20T10:09:58.018Z,100865.32
2019-04-20T10:12:26.113Z,100870.14
2019-04-20T10:14:57.625Z,100869.80
2019-04-20T10:17:27.055Z,100863.75
2019-04-20T10:19:54.066Z,100858.09
2019-04-20T10:22:22.569Z,100854.90
2019-04-20T10:24:52.199Z,100855.95
2019-04-20T10:27:20.999Z,100853.43
2019-04-20T10:29:49.342Z,100848.42
2019-04-20T10:32:17.998Z,100851.59
2019-04-20T10:34:46.494Z,100848.70
2019-04-20T10:37:24.174Z,100841.21
2019-04-20T10:39:52.423Z,100839.02
2019-04-20T10:42:20.570Z,100843.16
2019-04-20T10:44:48.558Z,100835.63
2019-04-20T10:47:16.887Z,100837.37
2019-04-20T10:49:45.091Z,100829.73
2019-04-20T10:52:13.744Z,100823.97
2019-04-20T10:54:42.699Z,100827.94
2019-04-20T10:57:10.800Z,100822.03
2019-04-20T10:59:39.452Z,100818.80
2019-04-20T11:02:09.788Z,100819.30
2019-04-20T11:04:38.786Z,100819.70
2019-04-20T11:07:08.209Z,100816.80
2019-04-20T11:09:36.659Z,100812.48
2019-04-20T11:12:06.268Z,100809.86
2019-04-20T11:14:37.245Z,100803.83
2019-04-20T11:17:04.499Z,100809.77
2019-04-20T11:19:33.604Z,100801.33
2019-04-20T11:22:02.229Z,100809.75
2019-04-20T11:24:30.315Z,100798.63
2019-04-20T11:26:58.626Z,100793.63
2019-04-20T11:29:26.658Z,100790.73
2019-04-20T11:31:56.175Z,100787.05
2019-04-20T11:34:28.658Z,100787.60
2019-04-20T11:36:55.045Z,100779.61
2019-04-20T11:39:23.142Z,100784.44
2019-04-20T11:41:51.746Z,100774.61
2019-04-20T11:44:20.080Z,100770.13
2019-04-20T11:46:48.392Z,100768.64
2019-04-20T11:49:17.469Z,100763.36
2019-04-20T11:51:45.926Z,100764.16
2019-04-20T11:54:14.592Z,100749.26
2019-04-20T11:56:46.840Z,100745.87
2019-04-20T11:59:12.773Z,100741.90
2019-04-20T12:02:04.100Z,100744.67
2019-04-20T12:04:44.182Z,100740.84
2019-04-20T12:07:08.748Z,100739.90
2019-04-20T12:09:37.704Z,100731.58
2019-04-20T12:12:15.530Z,100728.28
2019-04-20T12:14:36.759Z,100726.52
2019-04-20T12:17:05.894Z,100728.27
2019-04-20T12:19:36.213Z,100723.88
2019-04-20T12:22:04.000Z,100718.44
2019-04-20T12:24:33.214Z,100714.59
2019-04-20T12:27:02.661Z,100722.00
2019-04-20T12:29:32.087Z,100708.66
2019-04-20T12:32:02.962Z,100706.84
2019-04-20T12:34:30.731Z,100705.69
2019-04-20T12:36:58.806Z,100701.59
2019-04-20T12:39:27.068Z,100703.09
2019-04-20T12:41:58.851Z,100699.22
2019-04-20T12:44:25.788Z,100697.85
2019-04-20T12:46:54.023Z,100698.97
2019-04-20T12:49:23.459Z,100695.27
2019-04-20T12:51:57.079Z,100694.78
2019-04-20T12:54:22.780Z,100690.80
2019-04-20T12:56:50.893Z,100687.58
2019-04-20T12:59:18.957Z,100683.25
2019-04-20T13:01:47.152Z,100682.80
2019-04-20T13:04:16.462Z,100680.99
2019-04-20T13:06:45.146Z,100681.75
2019-04-20T13:09:14.474Z,100667.78
2019-04-20T13:12:11.694Z,100661.44
2019-04-20T13:15:42.468Z,100663.95
2019-04-20T13:18:11.581Z,100658.22
2019-04-20T13:20:39.802Z,100657.65
2019-04-20T13:23:09.122Z,100654.34
2019-04-20T13:25:39.185Z,100644.33
2019-04-20T13:28:07.422Z,100641.82
2019-04-20T13:30:35.592Z,100632.83
2019-04-20T13:33:03.991Z,100636.80
2019-04-20T13:35:34.277Z,100631.95
2019-04-20T13:38:02.544Z,100627.28
2019-04-20T13:40:31.214Z,100622.99
2019-04-20T13:42:59.594Z,100621.73
2019-04-20T13:45:28.838Z,100617.09
2019-04-20T13:47:57.078Z,100608.95
2019-04-20T13:50:26.258Z,100600.89
2019-04-20T13:52:54.474Z,100593.66
2019-04-20T13:55:24.949Z,100597.80
2019-04-20T13:58:04.227Z,100605.63
2019-04-20T14:00:58.961Z,100599.66
2019-04-20T14:03:30.018Z,100604.74
2019-04-20T14:05:58.480Z,100599.30
2019-04-20T14:08:27.385Z,100597.80
2019-04-20T14:10:55.752Z,100593.47
2019-04-20T14:13:29.292Z,100586.09
2019-04-20T14:15:55.449Z,100585.28
2019-04-20T14:18:24.942Z,100576.81
2019-04-20T14:20:54.105Z,100579.23
2019-04-20T14:23:23.217Z,100583.72
2019-04-20T14:25:52.155Z,100578.27
2019-04-20T14:28:20.952Z,100569.83
2019-04-20T14:30:49.933Z,100565.77
2019-04-20T14:33:18.937Z,100556.95
2019-04-20T14:35:48.353Z,100563.38
2019-04-20T14:38:17.641Z,100566.99
2019-04-20T14:40:46.371Z,100555.91
2019-04-20T14:43:15.111Z,100554.87
2019-04-20T14:45:44.769Z,100549.30
2019-04-20T14:48:13.051Z,100549.16
2019-04-20T14:50:41.416Z,100549.75
2019-04-20T14:53:09.598Z,100548.92
2019-04-20T14:55:37.705Z,100540.70
2019-04-20T14:58:26.956Z,100544.41
2019-04-20T15:01:00.578Z,100540.41
2019-04-20T15:03:36.893Z,100533.03
2019-04-20T15:06:05.410Z,100540.20
2019-04-20T15:08:34.861Z,100539.23
2019-04-20T15:11:03.037Z,100531.96
2019-04-20T15:13:31.034Z,100537.27
2019-04-20T15:15:59.179Z,100534.73
2019-04-20T15:18:31.739Z,100537.99
2019-04-20T15:21:01.654Z,100531.65
2019-04-20T15:23:29.838Z,100523.98
2019-04-20T15:25:58.222Z,100519.22
2019-04-20T15:28:26.402Z,100519.39
2019-04-20T15:30:54.491Z,100519.50
2019-04-20T15:33:23.489Z,100519.69
2019-04-20T15:35:52.687Z,100523.41
2019-04-20T15:38:21.094Z,100516.22
2019-04-20T15:40:49.402Z,100516.64
2019-04-20T15:43:20.903Z,100516.24
2019-04-20T15:45:47.591Z,100511.04
2019-04-20T15:48:16.296Z,100507.93
2019-04-20T15:50:45.670Z,100504.79
2019-04-20T15:53:13.814Z,100509.77
2019-04-20T15:55:43.870Z,100505.55
2019-04-20T15:58:12.368Z,100500.19
2019-04-20T16:00:40.613Z,100501.66
2019-04-20T16:03:12.904Z,100501.48
2019-04-20T16:06:07.462Z,100509.91
2019-04-20T16:08:38.721Z,100509.47
2019-04-20T16:11:07.330Z,100508.76
2019-04-20T16:13:39.575Z,100500.20
2019-04-20T16:16:05.819Z,100502.98
2019-04-20T16:18:34.944Z,100498.70
2019-04-20T16:21:07.885Z,100498.48
2019-04-20T16:23:58.934Z,100497.18
2019-04-20T16:26:35.729Z,100499.14
2019-04-20T16:29:05.835Z,100500.81
2019-04-20T16:31:34.015Z,100495.45
2019-04-20T16:34:03.226Z,100494.11
2019-04-20T16:36:32.467Z,100496.30
2019-04-20T16:39:01.696Z,100497.11
2019-04-20T16:41:32.637Z,100497.92
2019-04-20T16:44:00.789Z,100496.61
2019-04-20T16:46:30.049Z,100490.42
2019-04-20T16:48:58.982Z,100500.14
2019-04-20T16:51:27.201Z,100497.47
2019-04-20T16:53:56.160Z,100494.23
2019-04-20T16:56:24.565Z,100492.07
2019-04-20T16:58:54.645Z,100493.41
2019-04-20T17:01:23.467Z,100489.41
2019-04-20T17:04:01.058Z,100485.08
2019-04-20T17:06:22.323Z,100492.09
2019-04-20T17:08:51.335Z,100492.11
2019-04-20T17:11:19.483Z,100490.22
2019-04-20T17:13:50.046Z,100486.44
2019-04-20T17:16:17.622Z,100493.45
2019-04-20T17:18:49.969Z,100491.02
2019-04-20T17:21:22.924Z,100493.43
2019-04-20T17:23:49.144Z,100493.72
2019-04-20T17:26:29.460Z,100490.44
2019-04-20T17:29:19.979Z,100492.58
2019-04-20T17:32:13.714Z,100490.95
2019-04-20T17:34:58.185Z,100489.88
2019-04-20T17:37:12.880Z,100495.25
2019-04-20T17:40:05.297Z,100487.16
2019-04-20T17:42:23.749Z,100490.64
2019-04-20T17:44:55.581Z,100499.50
2019-04-20T17:47:31.323Z,100497.06
2019-04-20T17:50:05.243Z,100498.11
2019-04-20T17:52:37.323Z,100498.30
2019-04-20T17:54:55.843Z,100505.80
2019-04-20T17:57:25.381Z,100500.92
2019-04-20T18:00:07.052Z,100503.01
2019-04-20T18:03:00.642Z,100507.00
2019-04-20T18:05:39.491Z,100512.30
2019-04-20T18:08:10.279Z,100513.02
2019-04-20T18:10:36.743Z,100515.08
2019-04-20T18:12:53.056Z,100516.38
2019-04-20T18:15:36.845Z,100514.17
2019-04-20T18:18:24.520Z,100510.36
2019-04-20T18:20:59.006Z,100515.41
2019-04-20T18:23:33.736Z,100520.16
2019-04-20T18:26:18.629Z,100514.69
2019-04-20T18:28:51.600Z,100518.08
2019-04-20T18:31:15.492Z,100522.30
2019-04-20T18:33:44.493Z,100519.54
2019-04-20T18:36:20.566Z,100524.52
2019-04-20T18:38:52.985Z,100521.48
2019-04-20T18:41:25.687Z,100527.25
2019-04-20T18:43:48.212Z,100528.77
2019-04-20T18:46:29.336Z,100529.74
2019-04-20T18:49:03.285Z,100531.77
2019-04-20T18:51:12.254Z,100534.08
2019-04-20T18:53:43.334Z,100533.42
2019-04-20T18:56:10.269Z,100534.66
2019-04-20T18:58:38.334Z,100539.11
2019-04-20T19:01:07.542Z,100532.56
2019-04-20T19:03:40.654Z,100548.52
2019-04-20T19:06:07.210Z,100550.55
2019-04-20T19:08:40.504Z,100543.44
2019-04-20T19:11:09.755Z,100545.69
2019-04-20T19:13:44.608Z,100548.78
2019-04-20T19:16:50.883Z,100551.55
2019-04-20T19:19:37.507Z,100557.59
2019-04-20T19:21:58.461Z,100550.98
2019-04-20T19:24:29.698Z,100561.48
2019-04-20T19:27:02.949Z,100557.88
2019-04-20T19:29:33.011Z,100555.34
2019-04-20T19:32:15.851Z,100554.64
2019-04-20T19:34:43.197Z,100557.45
2019-04-20T19:37:06.199Z,100561.33
2019-04-20T19:39:43.691Z,100557.73
2019-04-20T19:42:11.739Z,100562.13
2019-04-20T19:44:49.540Z,100558.48
2019-04-20T19:47:15.678Z,100560.17
2019-04-20T19:49:37.082Z,100566.69
2019-04-20T19:52:27.161Z,100561.72
2019-04-20T19:54:46.503Z,100566.58
2019-04-20T19:57:16.148Z,100565.61
2019-04-20T19:59:35.438Z,100567.27
2019-04-20T20:01:58.015Z,100569.48
2019-04-20T20:04:26.054Z,100566.36
2019-04-20T20:07:01.470Z,100562.10
2019-04-20T20:09:24.170Z,100560.46
2019-04-20T20:11:56.129Z,100565.85
2019-04-20T20:14:30.619Z,100561.88
2019-04-20T20:17:08.681Z,100566.20
2019-04-20T20:19:37.191Z,100556.59
2019-04-20T20:22:06.717Z,100566.50
2019-04-20T20:24:23.228Z,100567.60
2019-04-20T20:26:59.865Z,100560.91
2019-04-20T20:29:31.566Z,100555.30
2019-04-20T20:32:08.482Z,100554.80
2019-04-20T20:34:28.724Z,100554.83
2019-04-20T20:36:54.584Z,100553.73
2019-04-20T20:39:27.763Z,100553.53
2019-04-20T20:42:04.978Z,100549.32
2019-04-20T20:44:31.843Z,100554.66
2019-04-20T20:47:03.115Z,100549.11
2019-04-20T20:49:40.184Z,100549.70
2019-04-20T20:52:12.040Z,100544.64
2019-04-20T20:54:33.579Z,100544.71
2019-04-20T20:57:02.830Z,100550.09
2019-04-20T20:59:34.771Z,100549.87
2019-04-20T21:02:00.974Z,100550.03
2019-04-20T21:04:21.758Z,100549.31
2019-04-20T21:06:50.881Z,100550.99
2019-04-20T21:09:20.651Z,100545.50
2019-04-20T21:11:51.129Z,100553.56
2019-04-20T21:14:22.171Z,100552.36
2019-04-20T21:17:00.303Z,100552.70
2019-04-20T21:19:34.287Z,100551.72
2019-04-20T21:21:55.920Z,100558.71
2019-04-20T21:24:30.300Z,100562.26
2019-04-20T21:27:00.611Z,100561.98
2019-04-20T21:29:35.565Z,100570.44
2019-04-20T21:32:05.051Z,100572.54
2019-04-20T21:34:29.118Z,100566.52
2019-04-20T21:37:07.021Z,100571.03
2019-04-20T21:39:38.283Z,100568.19
2019-04-20T21:42:04.373Z,100570.58
2019-04-20T21:44:34.798Z,100572.67
2019-04-20T21:47:01.266Z,100571.07
2019-04-20T21:49:42.307Z,100566.70
2019-04-20T21:52:06.734Z,100567.97
2019-04-20T21:54:32.009Z,100567.39
2019-04-20T21:57:03.853Z,100569.66
2019-04-20T21:59:36.268Z,100567.33
2019-04-20T22:02:09.854Z,100564.87
2019-04-20T22:04:31.298Z,100562.22
2019-04-20T22:07:00.487Z,100565.91
2019-04-20T22:09:34.412Z,100566.73
2019-04-20T22:12:00.040Z,100558.69
2019-04-20T22:14:32.286Z,100562.25
2019-04-20T22:17:01.804Z,100554.80
2019-04-20T22:19:41.161Z,100557.36
2019-04-20T22:22:05.515Z,100560.82
2019-04-20T22:24:45.466Z,100555.00
2019-04-20T22:27:09.933Z,100559.57
2019-04-20T22:29:32.268Z,100560.89
2019-04-20T22:32:08.899Z,100559.13
2019-04-20T22:34:33.690Z,100558.59
2019-04-20T22:37:02.374Z,100559.39
2019-04-20T22:39:39.678Z,100553.57
2019-04-20T22:42:08.942Z,100550.39
2019-04-20T22:44:36.429Z,100553.83
2019-04-20T22:47:12.514Z,100546.68
2019-04-20T22:49:48.209Z,100549.52
2019-04-20T22:52:23.337Z,100549.79
2019-04-20T22:54:49.396Z,100541.31
2019-04-20T22:57:19.397Z,100538.98
2019-04-20T22:59:44.708Z,100527.55
2019-04-20T23:02:06.544Z,100533.31
2019-04-20T23:04:35.077Z,100527.66
2019-04-20T23:07:03.237Z,100520.50
2019-04-20T23:09:34.211Z,100527.38
2019-04-20T23:12:09.194Z,100525.82
2019-04-20T23:14:32.141Z,100523.95
2019-04-20T23:17:02.132Z,100523.61
2019-04-20T23:19:38.193Z,100519.09
2019-04-20T23:22:04.820Z,100519.55
2019-04-20T23:24:31.060Z,100515.75
2019-04-20T23:26:59.541Z,100518.65
2019-04-20T23:29:32.669Z,100515.14
2019-04-20T23:32:03.009Z,100516.92
2019-04-20T23:34:31.011Z,100508.44
2019-04-20T23:36:58.870Z,100510.83
2019-04-20T23:39:34.248Z,100513.22
2019-04-20T23:42:01.612Z,100501.78
2019-04-20T23:44:45.917Z,100502.53
2019-04-20T23:47:25.524Z,100499.98
2019-04-20T23:50:12.292Z,100500.90
2019-04-20T23:52:49.692Z,100501.34
2019-04-20T23:55:04.338Z,100499.81
2019-04-20T23:57:29.382Z,100500.45
2019-04-20T23:59:58.175Z,100492.50
